Time;durP1;ratioP1;P1;durP2;ratioP2;P2;SDS_P1;SDS_P2;PMS_P1;PMS_P2;Temp;Humidity;BMP_temperature;BMP_pressure;BME280_temperature;BME280_humidity;BME280_pressure;Samples;Min_cycle;Max_cycle;Signal;HPM_P1;HPM_P2
2023/03/12 00:01:44;;;;;;;18.40;12.70;;;;;;;-0.62;100.00;98334.64;109678;1250;66881;-77
2023/03/12 00:04:11;;;;;;;17.00;12.90;;;;;;;-0.61;100.00;98337.39;109639;1250;59759;-76
2023/03/12 00:06:38;;;;;;;18.80;13.80;;;;;;;-0.57;100.00;98341.64;109483;1250;64744;-76
2023/03/12 00:09:05;;;;;;;18.60;14.40;;;;;;;-0.56;100.00;98339.33;109709;1250;58931;-76
2023/03/12 00:11:31;;;;;;;20.40;15.30;;;;;;;-0.54;100.00;98344.34;109653;1250;58860;-76
2023/03/12 00:14:01;;;;;;;16.00;14.20;;;;;;;-0.53;100.00;98347.77;109643;1250;66885;-76
2023/03/12 00:16:28;;;;;;;19.10;16.20;;;;;;;-0.53;100.00;98352.48;109629;1250;59885;-76
2023/03/12 00:18:55;;;;;;;23.70;18.10;;;;;;;-0.53;100.00;98351.25;109620;1250;63767;-76
2023/03/12 00:21:22;;;;;;;23.30;17.10;;;;;;;-0.54;100.00;98348.16;109635;1250;58988;-77
2023/03/12 00:23:50;;;;;;;22.00;17.50;;;;;;;-0.57;100.00;98347.91;109650;1250;59034;-76
2023/03/12 00:26:18;;;;;;;23.80;16.40;;;;;;;-0.61;100.00;98347.17;109670;1250;65862;-76
2023/03/12 00:28:47;;;;;;;21.30;16.50;;;;;;;-0.66;100.00;98348.53;109637;1250;59857;-76
2023/03/12 00:31:19;;;;;;;20.60;16.40;;;;;;;-0.68;100.00;98349.48;109678;1250;63812;-76
2023/03/12 00:33:48;;;;;;;20.10;16.20;;;;;;;-0.70;100.00;98354.43;109617;1250;59025;-76
2023/03/12 00:36:16;;;;;;;21.90;16.30;;;;;;;-0.74;100.00;98353.66;109644;1250;58949;-76
2023/03/12 00:38:43;;;;;;;23.20;15.70;;;;;;;-0.78;100.00;98353.65;109603;1250;66714;-76
2023/03/12 00:41:10;;;;;;;23.00;17.10;;;;;;;-0.84;100.00;98357.66;109627;1250;60039;-76
2023/03/12 00:43:37;;;;;;;18.40;14.10;;;;;;;-0.89;100.00;98355.02;109606;1251;64724;-76
2023/03/12 00:46:04;;;;;;;19.60;14.30;;;;;;;-0.95;100.00;98358.35;109597;1250;58936;-76
2023/03/12 00:48:30;;;;;;;17.60;14.20;;;;;;;-1.01;100.00;98367.58;109611;1250;59045;-76
2023/03/12 00:50:57;;;;;;;17.40;14.10;;;;;;;-1.05;100.00;98365.44;109695;1250;66902;-76
2023/03/12 00:53:23;;;;;;;17.10;12.90;;;;;;;-1.07;100.00;98365.16;109739;1250;60816;-76
2023/03/12 00:55:50;;;;;;;17.10;13.00;;;;;;;-1.07;100.00;98370.92;109659;1250;64738;-76
2023/03/12 00:58:16;;;;;;;17.40;13.60;;;;;;;-1.10;100.00;98374.32;109672;1250;58948;-76
2023/03/12 01:00:43;;;;;;;20.80;14.00;;;;;;;-1.13;100.00;98374.40;109703;1250;58968;-75
2023/03/12 01:03:10;;;;;;;19.90;14.50;;;;;;;-1.14;100.00;98377.77;109711;1250;67030;-76
2023/03/12 01:05:39;;;;;;;19.30;14.40;;;;;;;-1.14;100.00;98382.27;109645;1250;61049;-75
2023/03/12 01:08:07;;;;;;;17.60;13.20;;;;;;;-1.13;100.00;98381.38;109617;1250;63735;-76
2023/03/12 01:10:35;;;;;;;16.30;12.90;;;;;;;-1.11;100.00;98383.92;109638;1250;59112;-77
2023/03/12 01:13:01;;;;;;;15.50;11.90;;;;;;;-1.08;100.00;98381.05;108916;1250;1003138;-76
2023/03/12 01:15:28;;;;;;;15.90;11.80;;;;;;;-1.04;100.00;98381.98;109735;1250;66806;-76
2023/03/12 01:17:55;;;;;;;18.10;12.90;;;;;;;-1.02;100.00;98383.49;109668;1250;60784;-76
2023/03/12 01:20:22;;;;;;;25.20;14.70;;;;;;;-1.00;100.00;98383.96;109679;1250;64195;-76
2023/03/12 01:22:48;;;;;;;17.60;15.00;;;;;;;-0.99;100.00;98385.14;109672;1250;58947;-76
2023/03/12 01:25:15;;;;;;;20.10;14.20;;;;;;;-0.95;100.00;98379.98;109730;1250;59356;-76
2023/03/12 01:27:41;;;;;;;17.50;13.80;;;;;;;-0.91;100.00;98374.09;109584;1250;66917;-76
2023/03/12 01:30:09;;;;;;;17.70;13.20;;;;;;;-0.87;100.00;98372.75;109678;1250;61015;-75
2023/03/12 01:32:36;;;;;;;16.20;11.80;;;;;;;-0.85;100.00;98371.81;109566;1250;62755;-76
2023/03/12 01:35:02;;;;;;;16.30;12.00;;;;;;;-0.83;100.00;98371.23;109677;1250;58977;-76
2023/03/12 01:37:31;;;;;;;14.90;10.80;;;;;;;-0.80;100.00;98366.43;109713;1250;58962;-76
2023/03/12 01:39:58;;;;;;;14.40;10.90;;;;;;;-0.78;100.00;98365.50;109708;1250;66934;-76
2023/03/12 01:42:25;;;;;;;14.00;10.50;;;;;;;-0.76;100.00;98369.79;109612;1251;60354;-76
2023/03/12 01:44:51;;;;;;;12.20;9.40;;;;;;;-0.74;100.00;98373.75;109361;1250;64721;-75
2023/03/12 01:47:18;;;;;;;10.60;9.00;;;;;;;-0.74;100.00;98381.58;109678;1250;58946;-76
2023/03/12 01:49:47;;;;;;;15.30;10.70;;;;;;;-0.74;100.00;98384.56;109693;1250;58935;-76
2023/03/12 01:52:19;;;;;;;16.10;11.80;;;;;;;-0.73;100.00;98388.55;109686;1250;66651;-76
2023/03/12 01:54:56;;;;;;;16.80;12.80;;;;;;;-0.72;100.00;98390.08;109558;1250;67233;-76
2023/03/12 01:57:29;;;;;;;18.00;13.10;;;;;;;-0.71;100.00;98393.53;109481;1250;63824;-76
2023/03/12 01:59:59;;;;;;;16.60;12.10;;;;;;;-0.71;100.00;98396.13;109654;1250;58914;-76
2023/03/12 02:02:28;;;;;;;17.30;14.00;;;;;;;-0.72;100.00;98402.09;109629;1250;58853;-76
2023/03/12 02:05:06;;;;;;;19.90;14.90;;;;;;;-0.73;100.00;98401.42;109654;1250;64804;-76
2023/03/12 02:07:34;;;;;;;19.20;14.00;;;;;;;-0.78;100.00;98401.25;109719;1250;59853;-76
2023/03/12 02:10:01;;;;;;;17.90;12.60;;;;;;;-0.86;100.00;98402.55;109694;1250;63677;-76
2023/03/12 02:12:27;;;;;;;16.80;11.80;;;;;;;-0.95;100.00;98403.51;109441;1250;58986;-76
2023/03/12 02:14:54;;;;;;;21.30;12.50;;;;;;;-1.04;100.00;98405.16;109543;1251;59026;-75
2023/03/12 02:17:20;;;;;;;17.70;11.70;;;;;;;-1.13;100.00;98402.64;109689;1250;65640;-75
2023/03/12 02:19:56;;;;;;;19.70;13.40;;;;;;;-1.20;100.00;98405.98;109708;1250;60831;-75
2023/03/12 02:22:23;;;;;;;25.50;17.40;;;;;;;-1.28;100.00;98405.16;109708;1250;63703;-75
2023/03/12 02:25:05;;;;;;;22.60;16.30;;;;;;;-1.36;100.00;98407.13;109651;1250;58981;-76
2023/03/12 02:27:35;;;;;;;23.30;17.00;;;;;;;-1.43;100.00;98410.99;109627;1254;58985;-75
2023/03/12 02:30:04;;;;;;;27.90;16.60;;;;;;;-1.49;100.00;98413.41;109694;1254;67146;-75
2023/03/12 02:32:35;;;;;;;25.10;16.20;;;;;;;-1.55;100.00;98418.63;109680;1250;61052;-75
2023/03/12 02:35:03;;;;;;;27.60;17.60;;;;;;;-1.61;100.00;98427.34;109657;1250;64015;-75
2023/03/12 02:37:29;;;;;;;25.90;16.50;;;;;;;-1.66;100.00;98432.37;109280;1250;59040;-75
2023/03/12 02:40:12;;;;;;;25.70;17.40;;;;;;;-1.70;100.00;98433.17;109680;1250;58894;-75
2023/03/12 02:42:39;;;;;;;27.90;18.20;;;;;;;-1.72;100.00;98441.21;109677;1250;65686;-75
2023/03/12 02:45:06;;;;;;;27.30;17.20;;;;;;;-1.71;100.00;98444.17;109641;1254;59816;-75
2023/03/12 02:47:32;;;;;;;27.10;17.90;;;;;;;-1.69;100.00;98450.55;109673;1250;65008;-75
2023/03/12 02:49:59;;;;;;;30.20;19.90;;;;;;;-1.65;100.00;98450.45;109644;1250;59306;-75
2023/03/12 02:52:25;;;;;;;24.80;15.80;;;;;;;-1.60;100.00;98447.86;109287;1250;59001;-75
2023/03/12 02:54:52;;;;;;;32.80;19.10;;;;;;;-1.55;100.00;98449.82;109687;1250;65710;-76
2023/03/12 02:57:19;;;;;;;22.20;16.80;;;;;;;-1.50;100.00;98450.92;109616;1250;59862;-76
2023/03/12 02:59:45;;;;;;;25.40;16.80;;;;;;;-1.45;100.00;98455.84;109403;1250;62413;-76
2023/03/12 03:02:12;;;;;;;20.50;14.60;;;;;;;-1.41;100.00;98456.23;109637;1250;58984;-76
2023/03/12 03:04:39;;;;;;;25.60;17.70;;;;;;;-1.37;100.00;98459.45;109527;1250;59017;-75
2023/03/12 03:07:05;;;;;;;18.70;15.20;;;;;;;-1.33;100.00;98461.09;109633;1250;65623;-76
2023/03/12 03:09:32;;;;;;;19.10;13.80;;;;;;;-1.29;100.00;98461.50;109673;1250;60696;-75
2023/03/12 03:11:58;;;;;;;20.40;14.70;;;;;;;-1.25;100.00;98464.52;109698;1250;64829;-76
2023/03/12 03:14:25;;;;;;;17.60;12.50;;;;;;;-1.22;100.00;98468.42;109656;1250;58954;-76
2023/03/12 03:16:51;;;;;;;18.40;11.80;;;;;;;-1.18;100.00;98470.25;109383;1250;59240;-75
2023/03/12 03:19:18;;;;;;;17.40;12.80;;;;;;;-1.17;100.00;98472.64;109646;1250;67037;-75
2023/03/12 03:21:45;;;;;;;18.30;14.00;;;;;;;-1.14;100.00;98478.33;109393;1250;61035;-76
2023/03/12 03:24:11;;;;;;;16.20;12.30;;;;;;;-1.12;100.00;98483.67;108884;1250;1002686;-76
2023/03/12 03:26:39;;;;;;;16.50;12.60;;;;;;;-1.11;100.00;98483.81;109690;1250;59038;-76
2023/03/12 03:29:05;;;;;;;16.90;12.30;;;;;;;-1.10;100.00;98488.16;109717;1250;58948;-76
2023/03/12 03:31:32;;;;;;;19.00;13.20;;;;;;;-1.12;100.00;98492.19;109736;1250;65917;-76
2023/03/12 03:33:59;;;;;;;17.70;13.40;;;;;;;-1.15;100.00;98494.91;109755;1250;59738;-76
2023/03/12 03:36:25;;;;;;;18.50;12.50;;;;;;;-1.20;100.00;98496.79;109674;1250;63697;-76
2023/03/12 03:38:52;;;;;;;17.60;12.50;;;;;;;-1.26;100.00;98498.17;109640;1250;58992;-76
2023/03/12 03:41:21;;;;;;;18.60;13.90;;;;;;;-1.32;100.00;98501.14;109533;1250;59005;-76
2023/03/12 03:43:48;;;;;;;17.50;12.50;;;;;;;-1.38;100.00;98498.51;109674;1250;64675;-76
2023/03/12 03:46:15;;;;;;;15.90;11.70;;;;;;;-1.46;100.00;98497.66;109656;1250;60830;-75
2023/03/12 03:48:42;;;;;;;17.70;13.30;;;;;;;-1.52;100.00;98502.02;108909;1250;1002620;-76
2023/03/12 03:51:09;;;;;;;21.60;16.50;;;;;;;-1.58;100.00;98505.47;109642;1250;59005;-75
2023/03/12 03:53:36;;;;;;;22.30;16.10;;;;;;;-1.64;100.00;98506.50;109487;1250;59061;-76
2023/03/12 03:56:08;;;;;;;18.30;15.00;;;;;;;-1.70;100.00;98510.13;109637;1250;64785;-76
2023/03/12 03:58:35;;;;;;;16.70;14.00;;;;;;;-1.77;100.00;98509.95;109710;1251;60759;-76
2023/03/12 04:01:02;;;;;;;17.60;11.90;;;;;;;-1.83;100.00;98513.05;109696;1250;65102;-77
2023/03/12 04:03:29;;;;;;;15.10;12.30;;;;;;;-1.87;100.00;98515.77;109563;1250;59410;-76
2023/03/12 04:05:58;;;;;;;19.80;12.80;;;;;;;-1.91;100.00;98519.90;109638;1250;58991;-76
2023/03/12 04:08:25;;;;;;;19.00;12.90;;;;;;;-1.95;100.00;98514.60;109331;1250;65779;-76
2023/03/12 04:10:52;;;;;;;16.70;11.50;;;;;;;-2.01;100.00;98513.15;109694;1250;60541;-76
2023/03/12 04:13:19;;;;;;;19.70;12.80;;;;;;;-2.05;100.00;98512.91;109490;1250;64077;-75
2023/03/12 04:15:50;;;;;;;17.70;12.60;;;;;;;-2.10;100.00;98509.88;109274;1250;59580;-76
2023/03/12 04:18:18;;;;;;;18.50;12.30;;;;;;;-2.13;100.00;98510.14;109669;1250;58998;-77
2023/03/12 04:20:45;;;;;;;19.90;14.00;;;;;;;-2.17;100.00;98509.02;109649;1250;67102;-76
2023/03/12 04:23:11;;;;;;;18.10;12.70;;;;;;;-2.19;100.00;98512.04;109657;1250;58952;-77
2023/03/12 04:25:38;;;;;;;19.90;14.20;;;;;;;-2.19;100.00;98517.95;109638;1250;64719;-76
2023/03/12 04:28:05;;;;;;;21.70;13.90;;;;;;;-2.20;100.00;98521.44;109645;1250;58947;-77
2023/03/12 04:30:32;;;;;;;18.50;13.00;;;;;;;-2.21;100.00;98522.66;109698;1250;59176;-77
2023/03/12 04:32:59;;;;;;;19.80;13.10;;;;;;;-2.22;100.00;98525.65;109682;1250;66923;-77
2023/03/12 04:35:25;;;;;;;17.90;11.80;;;;;;;-2.22;100.00;98526.35;109368;1250;60991;-77
2023/03/12 04:37:52;;;;;;;18.80;11.90;;;;;;;-2.23;100.00;98527.59;109649;1250;64891;-77
2023/03/12 04:40:19;;;;;;;16.20;10.90;;;;;;;-2.24;100.00;98529.71;109683;1251;59403;-77
2023/03/12 04:42:46;;;;;;;20.10;13.80;;;;;;;-2.24;100.00;98531.46;109398;1251;58992;-76
2023/03/12 04:45:14;;;;;;;18.50;12.90;;;;;;;-2.26;100.00;98530.63;109695;1250;65732;-76
2023/03/12 04:47:40;;;;;;;17.30;12.40;;;;;;;-2.26;100.00;98525.59;109698;1251;59656;-77
2023/03/12 04:50:08;;;;;;;21.60;13.00;;;;;;;-2.28;100.00;98524.91;109681;1250;63754;-76
2023/03/12 04:52:34;;;;;;;18.80;12.40;;;;;;;-2.29;100.00;98527.73;109130;1250;58997;-76
2023/03/12 04:55:01;;;;;;;20.20;15.30;;;;;;;-2.32;100.00;98533.20;109622;1250;59160;-77
2023/03/12 04:57:28;;;;;;;18.80;13.80;;;;;;;-2.35;100.00;98538.14;108814;1251;1002187;-77
2023/03/12 04:59:55;;;;;;;20.80;15.00;;;;;;;-2.36;100.00;98538.70;109676;1250;59023;-77
2023/03/12 05:02:21;;;;;;;22.70;14.50;;;;;;;-2.37;100.00;98545.33;109337;1252;59393;-77
2023/03/12 05:04:48;;;;;;;18.80;14.10;;;;;;;-2.39;100.00;98547.45;109629;1251;59375;-77
2023/03/12 05:07:14;;;;;;;18.60;13.60;;;;;;;-2.40;100.00;98549.20;109503;1250;58911;-77
2023/03/12 05:09:42;;;;;;;22.10;14.60;;;;;;;-2.40;100.00;98549.55;109666;1250;59395;-77
2023/03/12 05:12:09;;;;;;;19.20;13.10;;;;;;;-2.39;100.00;98551.80;109322;1250;59095;-77
2023/03/12 05:14:38;;;;;;;21.70;13.50;;;;;;;-2.37;100.00;98552.63;109625;1250;65261;-77
2023/03/12 05:17:05;;;;;;;20.90;13.70;;;;;;;-2.33;100.00;98556.89;109590;1250;59003;-77
2023/03/12 05:19:32;;;;;;;20.90;12.80;;;;;;;-2.31;100.00;98557.86;109591;1250;59002;-77
2023/03/12 05:21:59;;;;;;;18.60;13.30;;;;;;;-2.27;100.00;98559.19;109627;1250;66921;-77
2023/03/12 05:24:26;;;;;;;20.10;13.20;;;;;;;-2.22;100.00;98562.39;109667;1251;60723;-77
2023/03/12 05:26:52;;;;;;;20.50;13.20;;;;;;;-2.18;100.00;98560.73;109632;1251;64018;-77
2023/03/12 05:29:19;;;;;;;17.90;13.00;;;;;;;-2.14;100.00;98564.80;109618;1250;59339;-77
2023/03/12 05:31:46;;;;;;;19.90;14.00;;;;;;;-2.04;100.00;98567.20;109603;1251;59022;-77
2023/03/12 05:34:12;;;;;;;19.50;13.20;;;;;;;-1.99;100.00;98569.69;109643;1250;66694;-77
2023/03/12 05:36:39;;;;;;;14.50;12.10;;;;;;;-1.83;100.00;98574.70;109652;1251;60782;-77
2023/03/12 05:39:06;;;;;;;14.50;10.70;;;;;;;-1.51;100.00;98576.02;109628;1251;63740;-77
2023/03/12 05:41:33;;;;;;;17.80;12.20;;;;;;;-1.26;100.00;98575.20;109646;1251;58968;-77
2023/03/12 05:44:00;;;;;;;14.80;11.70;;;;;;;-1.05;100.00;98577.61;109655;1250;59075;-77
2023/03/12 05:46:27;;;;;;;12.70;11.30;;;;;;;-0.79;100.00;98578.11;109301;1250;67185;-77
2023/03/12 05:48:53;;;;;;;12.30;10.40;;;;;;;-0.60;100.00;98577.23;109651;1251;60134;-77
2023/03/12 05:51:20;;;;;;;14.80;10.30;;;;;;;-0.40;100.00;98579.64;109659;1251;65098;-77
2023/03/12 05:53:47;;;;;;;12.60;11.30;;;;;;;-0.30;100.00;98583.52;109608;1254;58995;-77
2023/03/12 05:56:15;;;;;;;11.00;9.40;;;;;;;-0.11;100.00;98588.35;109604;1253;59013;-77
2023/03/12 05:58:43;;;;;;;13.90;10.70;;;;;;;-0.03;100.00;98589.52;109661;1250;64430;-77
2023/03/12 06:01:16;;;;;;;12.90;10.30;;;;;;;-0.08;100.00;98589.67;109591;1251;60101;-77
2023/03/12 06:03:43;;;;;;;13.60;11.40;;;;;;;-0.07;100.00;98588.40;109632;1251;64025;-77
2023/03/12 06:06:10;;;;;;;16.30;11.90;;;;;;;-0.05;100.00;98595.85;109400;1251;58988;-77
2023/03/12 06:08:37;;;;;;;15.10;11.70;;;;;;;-0.04;100.00;98598.10;109653;1250;59152;-77
2023/03/12 06:11:04;;;;;;;13.30;10.80;;;;;;;-0.03;100.00;98605.07;109700;1250;74672;-77
2023/03/12 06:13:31;;;;;;;14.10;11.00;;;;;;;-0.09;100.00;98604.02;107374;1251;1003065;-78
2023/03/12 06:16:06;;;;;;;12.40;9.90;;;;;;;-0.15;100.00;98605.26;109505;1250;65087;-77
2023/03/12 06:18:33;;;;;;;15.20;10.20;;;;;;;-0.24;100.00;98610.40;109235;1251;59311;-77
2023/03/12 06:21:08;;;;;;;12.20;9.60;;;;;;;-0.31;100.00;98614.63;109611;1250;59211;-77
2023/03/12 06:23:35;;;;;;;13.60;10.20;;;;;;;-0.34;100.00;98615.92;109612;1254;67066;-77
2023/03/12 06:26:02;;;;;;;12.80;10.00;;;;;;;-0.31;100.00;98616.73;109609;1251;60712;-77
2023/03/12 06:28:29;;;;;;;14.80;10.90;;;;;;;-0.27;100.00;98622.02;109631;1250;65020;-77
2023/03/12 06:30:56;;;;;;;15.30;10.90;;;;;;;-0.25;100.00;98625.09;109667;1250;58915;-77
2023/03/12 06:33:22;;;;;;;14.30;11.60;;;;;;;-0.23;100.00;98623.10;109621;1250;58785;-77
2023/03/12 06:35:54;;;;;;;15.00;11.50;;;;;;;-0.22;100.00;98619.59;109595;1250;65708;-77
2023/03/12 06:38:21;;;;;;;15.20;11.40;;;;;;;-0.21;100.00;98625.69;109651;1251;61246;-77
2023/03/12 06:40:58;;;;;;;14.00;10.30;;;;;;;-0.18;100.00;98630.49;109598;1251;63742;-77
2023/03/12 06:43:27;;;;;;;13.60;11.00;;;;;;;-0.12;100.00;98628.72;109319;1251;59034;-77
2023/03/12 06:45:55;;;;;;;14.20;11.70;;;;;;;-0.02;100.00;98627.70;109407;1251;58989;-77
2023/03/12 06:48:23;;;;;;;14.60;11.00;;;;;;;0.09;100.00;98630.04;109329;1251;66765;-77
2023/03/12 06:50:50;;;;;;;15.50;11.30;;;;;;;0.12;100.00;98635.34;109389;1251;59755;-78
2023/03/12 06:53:18;;;;;;;14.70;10.80;;;;;;;0.16;100.00;98636.80;109650;1251;62487;-77
2023/03/12 06:55:45;;;;;;;16.50;12.90;;;;;;;0.26;100.00;98640.34;109617;1250;58937;-78
2023/03/12 06:58:16;;;;;;;14.00;11.40;;;;;;;0.41;100.00;98640.39;109351;1251;59090;-77
2023/03/12 07:00:42;;;;;;;;;;;;;;;0.63;100.00;98644.07;109692;1251;64505;-77
2023/03/12 07:03:09;;;;;;;14.10;11.40;;;;;;;0.72;100.00;98643.42;109607;1251;60127;-77
2023/03/12 07:05:36;;;;;;;13.40;10.40;;;;;;;0.80;100.00;98649.60;109598;1251;64994;-77
2023/03/12 07:08:03;;;;;;;13.80;10.60;;;;;;;0.90;100.00;98652.07;109512;1251;58988;-77
2023/03/12 07:10:30;;;;;;;14.20;10.20;;;;;;;0.95;100.00;98656.47;109670;1251;59014;-78
2023/03/12 07:12:57;;;;;;;17.80;11.10;;;;;;;1.00;100.00;98658.38;109488;1250;65643;-77
2023/03/12 07:15:24;;;;;;;14.50;11.00;;;;;;;1.05;100.00;98657.88;109401;1250;60862;-77
2023/03/12 07:17:50;;;;;;;12.90;10.20;;;;;;;1.09;100.00;98660.71;109645;1251;65111;-77
2023/03/12 07:20:18;;;;;;;14.30;10.20;;;;;;;1.11;100.00;98659.06;109604;1251;59001;-77
2023/03/12 07:22:44;;;;;;;11.30;9.60;;;;;;;1.18;100.00;98651.30;109625;1250;59144;-77
2023/03/12 07:25:11;;;;;;;11.80;8.50;;;;;;;1.36;100.00;98649.80;109413;1250;66043;-76
2023/03/12 07:27:38;;;;;;;10.00;8.20;;;;;;;1.53;100.00;98650.41;109712;1250;61291;-77
2023/03/12 07:30:06;;;;;;;10.90;8.70;;;;;;;1.65;100.00;98649.84;109642;1251;64998;-77
2023/03/12 07:32:35;;;;;;;12.90;9.30;;;;;;;1.74;100.00;98647.22;108542;1250;1002306;-78
2023/03/12 07:35:03;;;;;;;12.40;9.90;;;;;;;1.80;100.00;98650.85;109598;1251;58954;-78
2023/03/12 07:37:30;;;;;;;9.80;8.60;;;;;;;1.87;100.00;98650.59;109665;1251;65990;-78
2023/03/12 07:39:57;;;;;;;15.30;10.60;;;;;;;1.89;100.00;98648.78;109655;1251;59913;-78
2023/03/12 07:42:24;;;;;;;12.30;10.40;;;;;;;1.85;100.00;98651.20;109666;1251;64943;-78
2023/03/12 07:44:51;;;;;;;14.90;9.70;;;;;;;1.75;100.00;98649.45;109364;1250;58978;-78
2023/03/12 07:47:18;;;;;;;15.60;8.90;;;;;;;1.65;100.00;98650.55;109625;1251;59004;-79
2023/03/12 07:49:44;;;;;;;16.50;11.00;;;;;;;1.57;100.00;98653.11;108111;1251;1003083;-77
2023/03/12 07:52:11;;;;;;;16.70;10.10;;;;;;;1.57;100.00;98647.86;109666;1251;59993;-77
2023/03/12 07:54:38;;;;;;;17.90;11.80;;;;;;;1.65;100.00;98646.85;108143;1250;1002831;-77
2023/03/12 07:57:05;;;;;;;15.90;10.60;;;;;;;1.77;100.00;98651.14;109605;1250;59047;-78
2023/03/12 07:59:32;;;;;;;14.80;9.30;;;;;;;1.87;100.00;98653.74;109661;1251;59305;-78
2023/03/12 08:01:59;;;;;;;13.40;9.00;;;;;;;1.91;100.00;98648.67;109683;1250;66011;-77
2023/03/12 08:04:26;;;;;;;14.80;9.60;;;;;;;1.92;100.00;98650.58;109402;1250;59285;-78
2023/03/12 08:06:53;;;;;;;13.20;9.10;;;;;;;1.95;100.00;98647.86;109617;1251;64977;-77
2023/03/12 08:09:20;;;;;;;11.10;9.10;;;;;;;1.99;100.00;98653.66;109628;1250;58929;-78
2023/03/12 08:11:47;;;;;;;14.10;9.20;;;;;;;2.06;100.00;98646.55;109610;1250;59026;-78
2023/03/12 08:14:13;;;;;;;15.10;8.40;;;;;;;2.15;100.00;98644.10;109643;1251;67164;-78
2023/03/12 08:16:40;;;;;;;14.30;9.10;;;;;;;2.30;100.00;98647.73;109634;1251;61485;-78
2023/03/12 08:19:07;;;;;;;10.50;8.40;;;;;;;2.58;100.00;98654.01;109591;1251;63796;-78
2023/03/12 08:21:34;;;;;;;13.50;8.60;;;;;;;2.63;100.00;98653.80;109636;1250;59290;-77
2023/03/12 08:24:01;;;;;;;13.00;8.60;;;;;;;2.51;100.00;98653.91;109651;1250;58921;-78
2023/03/12 08:26:28;;;;;;;10.80;8.50;;;;;;;2.41;100.00;98658.69;109614;1250;67176;-78
2023/03/12 08:28:55;;;;;;;11.00;7.60;;;;;;;2.38;100.00;98655.14;109362;1251;60137;-78
2023/03/12 08:31:22;;;;;;;8.30;7.00;;;;;;;2.39;100.00;98657.55;109630;1250;63694;-78
2023/03/12 08:33:49;;;;;;;9.70;7.20;;;;;;;2.42;100.00;98653.02;109604;1251;58939;-77
2023/03/12 08:36:15;;;;;;;10.00;7.60;;;;;;;2.47;100.00;98656.02;109625;1250;59098;-78
2023/03/12 08:38:42;;;;;;;8.10;6.20;;;;;;;2.46;100.00;98659.73;109342;1251;65797;-78
2023/03/12 08:41:10;;;;;;;8.60;6.10;;;;;;;2.46;100.00;98663.23;109639;1250;61016;-77
2023/03/12 08:43:36;;;;;;;6.70;5.70;;;;;;;2.45;100.00;98657.85;109652;1250;65122;-77
2023/03/12 08:46:03;;;;;;;8.00;5.80;;;;;;;2.45;100.00;98657.84;109625;1251;59140;-77
2023/03/12 08:48:31;;;;;;;7.70;6.10;;;;;;;2.46;100.00;98664.44;109618;1250;58868;-77
2023/03/12 08:51:02;;;;;;;6.80;5.60;;;;;;;2.48;100.00;98669.45;109658;1250;67098;-78
2023/03/12 08:53:31;;;;;;;10.00;6.10;;;;;;;2.51;100.00;98667.27;109645;1250;61238;-77
2023/03/12 08:55:58;;;;;;;6.70;5.50;;;;;;;2.55;100.00;98668.14;109496;1250;64767;-78
2023/03/12 08:58:26;;;;;;;7.60;5.70;;;;;;;2.58;100.00;98672.39;109790;1250;58853;-77
2023/03/12 09:00:54;;;;;;;8.60;6.20;;;;;;;2.64;100.00;98680.25;109832;1250;58863;-77
2023/03/12 09:03:21;;;;;;;7.40;5.00;;;;;;;2.74;100.00;98681.41;109650;1250;65776;-77
2023/03/12 09:05:49;;;;;;;5.60;4.80;;;;;;;2.82;100.00;98682.49;109684;1250;59749;-78
2023/03/12 09:08:17;;;;;;;6.50;5.30;;;;;;;2.93;100.00;98677.86;109630;1250;64300;-77
2023/03/12 09:10:48;;;;;;;5.30;4.70;;;;;;;3.02;100.00;98681.17;109617;1250;58955;-78
2023/03/12 09:13:15;;;;;;;5.60;4.80;;;;;;;3.09;100.00;98680.00;109654;1250;59133;-78
2023/03/12 09:15:42;;;;;;;4.50;4.10;;;;;;;3.12;100.00;98679.33;108831;1250;1002871;-77
2023/03/12 09:18:09;;;;;;;5.80;4.60;;;;;;;3.19;100.00;98675.20;109653;1250;69107;-77
2023/03/12 09:20:36;;;;;;;5.40;4.20;;;;;;;3.24;100.00;98671.79;109649;1250;65173;-77
2023/03/12 09:23:03;;;;;;;6.50;4.50;;;;;;;3.33;100.00;98672.51;109570;1250;58982;-77
2023/03/12 09:25:30;;;;;;;7.50;5.10;;;;;;;3.39;100.00;98676.46;109669;1250;59000;-77
2023/03/12 09:27:57;;;;;;;6.20;4.90;;;;;;;3.42;100.00;98677.55;109653;1250;66773;-77
2023/03/12 09:30:25;;;;;;;4.30;3.80;;;;;;;3.44;100.00;98674.45;109627;1250;60075;-78
2023/03/12 09:32:52;;;;;;;6.70;4.60;;;;;;;3.44;100.00;98675.33;109638;1250;64843;-77
2023/03/12 09:35:19;;;;;;;6.10;4.70;;;;;;;3.48;100.00;98678.51;109328;1250;59131;-77
2023/03/12 09:37:50;;;;;;;9.50;5.10;;;;;;;3.54;100.00;98677.21;109610;1250;58931;-77
2023/03/12 09:40:22;;;;;;;8.30;4.90;;;;;;;3.64;100.00;98675.70;109598;1250;66093;-77
2023/03/12 09:42:57;;;;;;;6.20;4.60;;;;;;;3.74;100.00;98677.20;109604;1250;61213;-77
2023/03/12 09:45:27;;;;;;;6.40;4.50;;;;;;;3.92;100.00;98676.74;109383;1250;65142;-77
2023/03/12 09:48:00;;;;;;;6.80;4.80;;;;;;;4.04;100.00;98678.48;109596;1250;59016;-77
2023/03/12 09:50:39;;;;;;;5.80;3.60;;;;;;;4.12;100.00;98680.39;109653;1250;59077;-77
2023/03/12 09:53:26;;;;;;;5.00;4.30;;;;;;;4.17;100.00;98686.34;109608;1251;65939;-76
2023/03/12 09:55:56;;;;;;;7.50;4.60;;;;;;;4.21;100.00;98686.50;109675;1250;61495;-77
2023/03/12 09:58:36;;;;;;;4.70;3.80;;;;;;;4.27;100.00;98679.90;109650;1250;64902;-77
2023/03/12 10:01:18;;;;;;;5.90;4.30;;;;;;;4.24;100.00;98684.61;109628;1250;59018;-77
2023/03/12 10:04:05;;;;;;;6.50;4.70;;;;;;;4.25;100.00;98676.85;109621;1250;59012;-78
2023/03/12 10:06:38;;;;;;;5.60;4.30;;;;;;;4.32;100.00;98680.38;109667;1250;65788;-77
2023/03/12 10:09:43;;;;;;;6.30;4.30;;;;;;;4.47;100.00;98679.32;109470;1250;60810;-77
2023/03/12 10:12:40;;;;;;;5.30;4.60;;;;;;;4.58;100.00;98681.06;109048;1257;64885;-78
2023/03/12 10:15:23;;;;;;;5.80;4.90;;;;;;;4.62;100.00;98684.92;108908;1259;59088;-77
2023/03/12 10:17:57;;;;;;;8.20;5.40;;;;;;;4.57;100.00;98688.69;108898;1257;59131;-77
2023/03/12 10:20:42;;;;;;;6.50;5.60;;;;;;;4.46;100.00;98685.00;109069;1257;67095;-77
2023/03/12 10:23:43;;;;;;;7.60;5.30;;;;;;;4.53;100.00;98682.17;108879;1257;59878;-77
2023/03/12 10:26:28;;;;;;;8.20;5.70;;;;;;;4.58;100.00;98681.59;108996;1257;65254;-77
2023/03/12 10:28:59;;;;;;;7.30;6.00;;;;;;;4.69;100.00;98681.43;108972;1257;59522;-77
2023/03/12 10:31:31;;;;;;;6.90;5.00;;;;;;;4.73;100.00;98679.31;109005;1257;59180;-77
2023/03/12 10:33:59;;;;;;;5.40;4.90;;;;;;;4.71;100.00;98674.30;109037;1257;67123;-77
2023/03/12 10:36:32;;;;;;;8.00;5.30;;;;;;;4.77;100.00;98672.05;109033;1257;60910;-77
2023/03/12 10:38:59;;;;;;;7.80;5.10;;;;;;;4.97;100.00;98669.32;108985;1258;65048;-77
2023/03/12 10:41:30;;;;;;;7.50;5.40;;;;;;;5.20;100.00;98669.96;109005;1257;59018;-77
2023/03/12 10:44:04;;;;;;;8.50;5.20;;;;;;;5.39;100.00;98666.89;109058;1257;59204;-77
2023/03/12 10:46:36;;;;;;;7.80;5.40;;;;;;;5.47;100.00;98665.97;109033;1257;67236;-77
2023/03/12 10:49:24;;;;;;;8.90;5.30;;;;;;;5.40;100.00;98668.08;109400;1250;61023;-77
2023/03/12 10:51:58;;;;;;;6.30;4.90;;;;;;;5.27;100.00;98668.34;109483;1250;203653;-77
2023/03/12 10:54:30;;;;;;;6.70;5.20;;;;;;;5.33;100.00;98677.55;109637;1250;59046;-77
2023/03/12 10:56:59;;;;;;;6.20;5.20;;;;;;;5.49;100.00;98670.23;109628;1250;59019;-77
2023/03/12 10:59:36;;;;;;;6.50;5.60;;;;;;;5.65;100.00;98672.41;109644;1250;66003;-77
2023/03/12 11:02:22;;;;;;;9.20;6.90;;;;;;;5.80;100.00;98664.55;109702;1250;61035;-77
2023/03/12 11:04:51;;;;;;;7.40;6.20;;;;;;;6.01;100.00;98665.80;109411;1250;64106;-78
2023/03/12 11:07:27;;;;;;;5.60;5.10;;;;;;;6.11;100.00;98669.86;109708;1250;58929;-78
2023/03/12 11:10:24;;;;;;;7.30;5.70;;;;;;;6.07;100.00;98668.77;109677;1250;59004;-78
2023/03/12 11:13:03;;;;;;;7.00;5.70;;;;;;;5.92;100.00;98665.73;109008;1257;67090;-78
2023/03/12 11:15:41;;;;;;;10.00;6.60;;;;;;;5.77;100.00;98661.91;108912;1257;59830;-78
2023/03/12 11:18:32;;;;;;;9.40;6.60;;;;;;;5.76;100.00;98663.87;109002;1257;64810;-77